Academy, SD

4:58 PM CST on March 04, 2015 (GMT -0600)
Platte,SD | Change Station
CLOSE
Current Station
Personal Weather Station
Location: Platte, SD
Elevation: 1601 ft
Nearby Weather Stations

Elev 1601 ft 43.39 °N, 98.84 °W | Updated 9 minutes ago

Partly Cloudy
Partly Cloudy
13.8 °F
Feels Like -1 °F
N
14.5
Wind Variable Wind from NNW

Today
High -- | Low -- °F
--% Chance of Precip.
Yesterday
High -- | Low -- °F
Precip. -- in
7:07 AM 6:28 PM
Waxing Gibbous, 99% visible
Pressure 30.33 in
Visibility 10.0 miles
Clouds Clear
Windchill -1 °F
Dew Point -2 °F
Humidity 49%
Rainfall 2.63 in
Snow Depth Not available.
UV 1 out of 12
Pollen .40 out of 12
Air Quality Not available.
Flu Activity Not available.
METAR K9V9 042235Z AUTO 30013KT 10SM CLR M11/M20 A3033 RMK AO2 T11111204

More Conditions Fewer Conditions

Pressure 30.33 in
Visibility 10.0 miles
Clouds Clear
Windchill -1 °F
Dew Point -2 °F
Humidity 49%
Rainfall 2.63 in
Snow Depth Not available.
UV 1 out of 12
Pollen .40 out of 12
Air Quality Not available.
Flu Activity Not available.
METAR K9V9 042235Z AUTO 30013KT 10SM CLR M11/M20 A3033 RMK AO2 T11111204

More Conditions Fewer Conditions

10-Day Weather Forecast

Almanac

Astronomy

Mar. 04, 2015 Rise Set
Actual Time
Civil Twilight
Nautical Twilight
Astronomical Twilight
Moon
Length of Visible Light
Length of Day
Tomorrow will be .
, % of the Moon is Illuminated

Today's Extremes

State Highs State Lows

Community

WunderPhotos

Upload Photos

1,802,595 photos uploaded!

WunderBlogs® & News

Nearby

Air Quality

  Air Quality AQ Index Pollutant
Not available.

Snow Depth

Station Depth Elevation

Earthquake Activity

City Distance Mag. Time & Date
Minimum magnitude displayed is 2.5.

Coastal Water Temperatures

Place Temperature

Nearby Weather Stations